createdAt,value
2018-03-29T00:01:34.015Z,99.90
2018-03-29T00:04:03.022Z,99.90
2018-03-29T00:06:31.279Z,99.90
2018-03-29T00:08:59.521Z,99.90
2018-03-29T00:11:27.764Z,99.90
2018-03-29T00:13:55.998Z,99.90
2018-03-29T00:16:24.234Z,99.90
2018-03-29T00:18:52.470Z,99.90
2018-03-29T00:21:21.482Z,99.90
2018-03-29T00:23:49.734Z,99.90
2018-03-29T00:26:18.738Z,99.90
2018-03-29T00:28:46.980Z,99.90
2018-03-29T00:31:15.226Z,99.90
2018-03-29T00:33:43.465Z,99.90
2018-03-29T00:36:11.713Z,99.90
2018-03-29T00:38:39.946Z,99.90
2018-03-29T00:41:08.190Z,99.90
2018-03-29T00:43:36.433Z,99.90
2018-03-29T00:46:04.678Z,99.90
2018-03-29T00:48:32.916Z,99.90
2018-03-29T00:51:01.922Z,99.90
2018-03-29T00:53:45.162Z,99.90
2018-03-29T00:56:13.401Z,99.90
2018-03-29T00:58:42.419Z,99.90
2018-03-29T01:01:10.657Z,99.90
2018-03-29T01:03:39.658Z,99.90
2018-03-29T01:06:08.677Z,99.90
2018-03-29T01:08:36.918Z,99.90
2018-03-29T01:11:05.922Z,99.90
2018-03-29T01:13:34.936Z,99.90
2018-03-29T01:16:03.179Z,99.90
2018-03-29T01:18:31.417Z,99.90
2018-03-29T01:20:59.654Z,99.90
2018-03-29T01:23:27.905Z,99.90
2018-03-29T01:25:56.905Z,99.90
2018-03-29T01:28:25.921Z,99.90
2018-03-29T01:30:54.169Z,99.90
2018-03-29T01:33:23.182Z,99.90
2018-03-29T01:35:51.419Z,99.90
2018-03-29T01:38:19.842Z,99.90
2018-03-29T01:40:48.096Z,99.90
2018-03-29T01:43:16.330Z,99.90
2018-03-29T01:45:44.569Z,99.90
2018-03-29T01:48:12.809Z,99.90
2018-03-29T01:50:41.831Z,99.90
2018-03-29T01:53:10.111Z,99.90
2018-03-29T01:55:38.314Z,99.90
2018-03-29T01:58:06.553Z,99.90
2018-03-29T02:00:35.557Z,99.90
2018-03-29T02:03:03.804Z,99.90
2018-03-29T02:05:32.817Z,99.90
2018-03-29T02:08:01.061Z,99.90
2018-03-29T02:10:30.078Z,99.90
2018-03-29T02:12:59.073Z,99.90
2018-03-29T02:15:27.320Z,99.90
2018-03-29T02:17:55.558Z,99.90
2018-03-29T02:20:23.800Z,99.90
2018-03-29T02:22:52.053Z,99.90
2018-03-29T02:25:21.066Z,99.90
2018-03-29T02:27:49.364Z,99.90
2018-03-29T02:30:18.429Z,99.90
2018-03-29T02:32:47.438Z,99.90
2018-03-29T02:35:15.687Z,99.90
2018-03-29T02:37:44.702Z,99.90
2018-03-29T02:40:13.697Z,99.90
2018-03-29T02:42:41.934Z,99.90
2018-03-29T02:45:10.265Z,99.90
2018-03-29T02:47:38.507Z,99.90
2018-03-29T02:50:07.506Z,99.90
2018-03-29T02:52:35.755Z,99.90
2018-03-29T02:55:03.995Z,99.90
2018-03-29T02:57:32.234Z,99.90
2018-03-29T03:00:01.241Z,99.90
2018-03-29T03:02:29.472Z,99.90
2018-03-29T03:04:57.713Z,99.90
2018-03-29T03:07:25.962Z,99.90
2018-03-29T03:09:54.204Z,99.90
2018-03-29T03:12:22.452Z,99.90
2018-03-29T03:14:50.698Z,99.90
2018-03-29T03:17:18.930Z,99.90
2018-03-29T03:19:47.169Z,99.90
2018-03-29T03:22:15.401Z,99.90
2018-03-29T03:24:44.408Z,99.90
2018-03-29T03:27:12.644Z,99.90
2018-03-29T03:29:40.889Z,99.90
2018-03-29T03:32:09.121Z,99.90
2018-03-29T03:34:38.129Z,99.90
2018-03-29T03:37:06.407Z,99.90
2018-03-29T03:39:34.610Z,99.90
2018-03-29T03:42:02.845Z,99.90
2018-03-29T03:44:31.093Z,99.90
2018-03-29T03:46:59.320Z,99.90
2018-03-29T03:49:27.560Z,99.90
2018-03-29T03:51:56.570Z,99.90
2018-03-29T03:54:24.805Z,99.90
2018-03-29T03:56:53.148Z,99.90
2018-03-29T03:59:21.385Z,99.90
2018-03-29T04:01:50.425Z,99.90
2018-03-29T04:04:18.656Z,99.90
2018-03-29T04:06:46.896Z,99.90
2018-03-29T04:09:15.141Z,99.90
2018-03-29T04:11:43.388Z,99.90
2018-03-29T04:14:11.630Z,99.90
2018-03-29T04:16:39.869Z,99.90
2018-03-29T04:19:08.109Z,99.90
2018-03-29T04:21:36.361Z,99.90
2018-03-29T04:24:05.373Z,99.90
2018-03-29T04:26:34.386Z,99.90
2018-03-29T04:29:02.622Z,99.90
2018-03-29T04:31:30.870Z,99.90
2018-03-29T04:33:59.114Z,99.90
2018-03-29T04:36:27.349Z,99.90
2018-03-29T04:38:56.361Z,99.90
2018-03-29T04:41:24.663Z,99.90
2018-03-29T04:43:52.912Z,99.90
2018-03-29T04:46:21.909Z,99.90
2018-03-29T04:48:50.157Z,99.90
2018-03-29T04:51:18.393Z,99.90
2018-03-29T04:53:46.641Z,99.90
2018-03-29T04:56:14.879Z,99.90
2018-03-29T04:58:43.117Z,99.90
2018-03-29T05:01:11.357Z,99.90
2018-03-29T05:03:40.361Z,99.90
2018-03-29T05:06:08.601Z,99.90
2018-03-29T05:08:36.848Z,99.90
2018-03-29T05:11:05.095Z,99.90
2018-03-29T05:13:33.337Z,99.90
2018-03-29T05:16:02.340Z,99.90
2018-03-29T05:18:31.350Z,99.90
2018-03-29T05:20:59.590Z,99.90
2018-03-29T05:23:27.825Z,99.90
2018-03-29T05:26:01.553Z,99.90
2018-03-29T05:28:29.789Z,99.90
2018-03-29T05:30:58.034Z,99.90
2018-03-29T05:33:27.041Z,99.90
2018-03-29T05:35:55.284Z,99.90
2018-03-29T05:38:23.513Z,99.90
2018-03-29T05:40:51.796Z,99.90
2018-03-29T05:43:19.992Z,99.90
2018-03-29T05:45:48.234Z,99.90
2018-03-29T05:48:16.478Z,99.90
2018-03-29T05:50:45.494Z,99.90
2018-03-29T05:53:13.731Z,99.90
2018-03-29T05:55:42.747Z,99.90
2018-03-29T05:58:10.977Z,99.90
2018-03-29T06:00:39.225Z,99.90
2018-03-29T06:03:07.527Z,99.90
2018-03-29T06:05:36.471Z,99.90
2018-03-29T06:08:04.711Z,99.90
2018-03-29T06:10:32.949Z,99.90
2018-03-29T06:13:01.190Z,99.90
2018-03-29T06:15:33.348Z,99.90
2018-03-29T06:18:02.350Z,99.90
2018-03-29T06:20:30.599Z,99.90
2018-03-29T06:22:58.838Z,99.90
2018-03-29T06:25:27.085Z,99.90
2018-03-29T06:27:55.330Z,99.90
2018-03-29T06:30:24.333Z,99.90
2018-03-29T06:32:53.346Z,99.90
2018-03-29T06:35:21.581Z,99.90
2018-03-29T06:37:49.826Z,99.90
2018-03-29T06:40:18.062Z,99.90
2018-03-29T06:42:46.313Z,99.90
2018-03-29T06:45:14.554Z,99.90
2018-03-29T06:47:42.797Z,99.90
2018-03-29T06:50:11.033Z,99.90
2018-03-29T06:52:39.283Z,99.90
2018-03-29T06:55:07.522Z,99.90
2018-03-29T06:57:35.767Z,99.90
2018-03-29T07:00:04.778Z,99.90
2018-03-29T07:02:33.791Z,99.90
2018-03-29T07:05:02.030Z,99.90
2018-03-29T07:07:30.270Z,99.90
2018-03-29T07:09:58.510Z,99.90
2018-03-29T07:12:26.760Z,99.90
2018-03-29T07:14:55.781Z,99.90
2018-03-29T07:17:24.014Z,99.90
2018-03-29T07:19:52.254Z,99.90
2018-03-29T07:22:20.499Z,99.90
2018-03-29T07:24:48.733Z,99.90
2018-03-29T07:27:16.989Z,99.90
2018-03-29T07:29:45.273Z,99.90
2018-03-29T07:32:13.461Z,99.90
2018-03-29T07:34:41.701Z,99.90
2018-03-29T07:37:09.942Z,99.90
2018-03-29T07:39:38.955Z,99.90
2018-03-29T07:42:07.201Z,99.90
2018-03-29T07:44:36.206Z,99.90
2018-03-29T07:47:04.483Z,99.90
2018-03-29T07:49:32.721Z,99.90
2018-03-29T07:52:02.474Z,99.90
2018-03-29T07:54:30.717Z,99.90
2018-03-29T07:56:58.950Z,99.90
2018-03-29T07:59:27.213Z,99.90
2018-03-29T08:01:55.445Z,99.90
2018-03-29T08:04:24.450Z,99.90
2018-03-29T08:06:52.693Z,99.90
2018-03-29T08:09:20.941Z,99.90
2018-03-29T08:11:49.176Z,99.90
2018-03-29T08:14:18.189Z,99.90
2018-03-29T08:16:46.447Z,99.90
2018-03-29T08:19:14.733Z,99.90
2018-03-29T08:21:43.111Z,99.90
2018-03-29T08:24:12.105Z,99.90
2018-03-29T08:26:40.342Z,99.90
2018-03-29T08:29:08.590Z,99.90
2018-03-29T08:31:36.833Z,99.90
2018-03-29T08:34:05.086Z,99.90
2018-03-29T08:36:34.087Z,99.90
2018-03-29T08:39:03.093Z,99.90
2018-03-29T08:41:31.345Z,99.90
2018-03-29T08:44:00.349Z,99.90
2018-03-29T08:46:29.353Z,99.90
2018-03-29T08:48:57.601Z,99.90
2018-03-29T08:51:26.605Z,99.90
2018-03-29T08:53:55.612Z,99.90
2018-03-29T08:56:23.852Z,99.90
2018-03-29T08:58:52.088Z,99.90
2018-03-29T09:01:20.343Z,99.90
2018-03-29T09:03:48.573Z,99.90
2018-03-29T09:06:16.816Z,99.90
2018-03-29T09:08:45.053Z,99.90
2018-03-29T09:11:13.306Z,99.90
2018-03-29T09:13:41.545Z,99.90
2018-03-29T09:16:09.792Z,99.90
2018-03-29T09:18:38.043Z,99.90
2018-03-29T09:21:07.073Z,99.90
2018-03-29T09:23:35.291Z,99.90
2018-03-29T09:26:04.329Z,99.90
2018-03-29T09:28:32.565Z,99.90
2018-03-29T09:31:00.802Z,99.90
2018-03-29T09:33:29.042Z,99.90
2018-03-29T09:35:57.289Z,99.90
2018-03-29T09:38:25.533Z,99.90
2018-03-29T09:40:53.774Z,99.90
2018-03-29T09:43:22.013Z,99.90
2018-03-29T09:45:50.253Z,99.90
2018-03-29T09:48:18.504Z,99.90
2018-03-29T09:50:46.742Z,99.90
2018-03-29T09:53:14.985Z,99.90
2018-03-29T09:55:43.220Z,99.90
2018-03-29T09:58:11.473Z,99.90
2018-03-29T10:00:40.486Z,99.90
2018-03-29T10:03:09.490Z,99.90
2018-03-29T10:05:38.625Z,99.90
2018-03-29T10:08:06.890Z,99.90
2018-03-29T10:10:35.122Z,99.90
2018-03-29T10:13:04.137Z,99.10
2018-03-29T10:15:32.371Z,99.10
2018-03-29T10:18:00.617Z,99.90
2018-03-29T10:20:28.861Z,97.20
2018-03-29T10:22:57.110Z,96.00
2018-03-29T10:25:26.114Z,96.80
2018-03-29T10:27:54.370Z,97.00
2018-03-29T10:30:23.374Z,97.10
2018-03-29T10:32:52.381Z,97.00
2018-03-29T10:35:20.625Z,97.00
2018-03-29T10:37:48.870Z,97.30
2018-03-29T10:40:17.109Z,98.00
2018-03-29T10:42:45.353Z,96.80
2018-03-29T10:45:13.610Z,96.70
2018-03-29T10:47:41.850Z,97.50
2018-03-29T10:50:10.097Z,97.30
2018-03-29T10:52:39.101Z,98.30
2018-03-29T10:55:07.352Z,98.30
2018-03-29T10:57:36.356Z,97.70
2018-03-29T11:00:05.373Z,98.40
2018-03-29T11:02:33.609Z,98.40
2018-03-29T11:05:01.851Z,98.00
2018-03-29T11:07:30.095Z,97.60
2018-03-29T11:09:58.341Z,96.00
2018-03-29T11:12:27.344Z,95.50
2018-03-29T11:14:56.345Z,96.20
2018-03-29T11:17:24.583Z,96.30
2018-03-29T11:19:52.833Z,94.10
2018-03-29T11:22:21.065Z,90.80
2018-03-29T11:24:50.065Z,94.10
2018-03-29T11:27:18.313Z,94.20
2018-03-29T11:29:46.550Z,94.20
2018-03-29T11:32:14.788Z,95.00
2018-03-29T11:34:43.025Z,95.90
2018-03-29T11:37:11.275Z,97.70
2018-03-29T11:39:39.514Z,97.50
2018-03-29T11:42:07.758Z,97.00
2018-03-29T11:44:35.993Z,95.10
2018-03-29T11:47:04.237Z,95.20
2018-03-29T11:49:32.474Z,95.60
2018-03-29T11:52:00.721Z,94.90
2018-03-29T11:54:28.957Z,94.70
2018-03-29T11:56:57.973Z,96.80
2018-03-29T11:59:26.219Z,96.40
2018-03-29T12:01:55.218Z,93.00
2018-03-29T12:04:24.222Z,92.50
2018-03-29T12:06:53.318Z,94.10
2018-03-29T12:09:21.550Z,94.10
2018-03-29T12:11:50.177Z,93.40
2018-03-29T12:14:18.407Z,95.20
2018-03-29T12:16:46.649Z,95.30
2018-03-29T12:19:14.894Z,93.90
2018-03-29T12:21:43.898Z,83.20
2018-03-29T12:24:12.146Z,83.40
2018-03-29T12:26:40.388Z,66.70
2018-03-29T12:29:08.638Z,67.20
2018-03-29T12:31:36.882Z,66.90
2018-03-29T12:34:05.891Z,68.80
2018-03-29T12:36:34.135Z,68.80
2018-03-29T12:39:02.378Z,69.10
2018-03-29T12:41:30.610Z,71.80
2018-03-29T12:43:59.618Z,73.00
2018-03-29T12:46:27.866Z,72.90
2018-03-29T12:48:56.868Z,76.80
2018-03-29T12:51:25.874Z,71.70
2018-03-29T12:53:54.119Z,71.60
2018-03-29T12:56:22.361Z,71.20
2018-03-29T12:58:50.606Z,65.00
2018-03-29T13:01:18.837Z,61.70
2018-03-29T13:03:47.088Z,61.60
2018-03-29T13:06:15.331Z,61.90
2018-03-29T13:08:43.578Z,58.70
2018-03-29T13:11:11.875Z,53.90
2018-03-29T13:13:40.118Z,55.20
2018-03-29T13:16:08.361Z,53.80
2018-03-29T13:18:36.601Z,51.30
2018-03-29T13:21:04.852Z,51.00
2018-03-29T13:23:33.870Z,50.30
2018-03-29T13:26:02.141Z,50.10
2018-03-29T13:28:31.140Z,50.90
2018-03-29T13:30:59.376Z,50.70
2018-03-29T13:33:27.617Z,50.90
2018-03-29T13:35:55.864Z,54.20
2018-03-29T13:38:24.097Z,57.70
2018-03-29T13:40:52.334Z,57.70
2018-03-29T13:43:20.582Z,57.60
2018-03-29T13:45:49.577Z,56.10
2018-03-29T13:48:17.849Z,56.10
2018-03-29T13:50:46.129Z,55.40
2018-03-29T13:53:14.366Z,55.80
2018-03-29T13:55:42.613Z,53.60
2018-03-29T13:58:10.857Z,52.30
2018-03-29T14:00:39.108Z,52.90
2018-03-29T14:03:08.115Z,54.90
2018-03-29T14:05:37.133Z,54.50
2018-03-29T14:08:05.377Z,54.50
2018-03-29T14:10:34.401Z,51.90
2018-03-29T14:13:02.646Z,51.90
2018-03-29T14:15:31.645Z,54.40
2018-03-29T14:18:00.658Z,54.20
2018-03-29T14:20:28.897Z,54.20
2018-03-29T14:22:57.136Z,54.30
2018-03-29T14:25:25.368Z,54.20
2018-03-29T14:27:53.613Z,53.90
2018-03-29T14:30:21.848Z,54.70
2018-03-29T14:32:50.096Z,55.50
2018-03-29T14:35:18.345Z,55.20
2018-03-29T14:37:47.357Z,57.50
2018-03-29T14:40:15.601Z,57.00
2018-03-29T14:42:43.848Z,57.40
2018-03-29T14:45:12.084Z,58.30
2018-03-29T14:47:40.338Z,56.60
2018-03-29T14:50:09.344Z,56.40
2018-03-29T14:52:38.356Z,57.50
2018-03-29T14:55:06.603Z,57.90
2018-03-29T14:57:34.826Z,58.90
2018-03-29T15:00:03.177Z,59.40
2018-03-29T15:02:31.424Z,59.50
2018-03-29T15:04:59.666Z,60.10
2018-03-29T15:07:27.921Z,60.00
2018-03-29T15:09:56.161Z,63.00
2018-03-29T15:12:25.170Z,60.80
2018-03-29T15:14:53.421Z,60.70
2018-03-29T15:17:22.420Z,64.50
2018-03-29T15:19:51.433Z,63.00
2018-03-29T15:22:19.687Z,62.90
2018-03-29T15:24:48.693Z,64.30
2018-03-29T15:27:16.932Z,64.30
2018-03-29T15:29:45.185Z,61.20
2018-03-29T15:32:13.425Z,62.60
2018-03-29T15:34:41.667Z,62.10
2018-03-29T15:37:09.911Z,65.70
2018-03-29T15:39:38.161Z,65.60
2018-03-29T15:42:06.402Z,67.10
2018-03-29T15:44:35.436Z,72.70
2018-03-29T15:47:03.658Z,72.00
2018-03-29T15:49:31.895Z,75.20
2018-03-29T15:52:00.147Z,76.80
2018-03-29T15:54:28.374Z,78.20
2018-03-29T15:56:56.623Z,80.40
2018-03-29T15:59:24.864Z,83.30
2018-03-29T16:01:53.872Z,83.30
2018-03-29T16:04:22.109Z,83.20
2018-03-29T16:06:50.348Z,87.10
2018-03-29T16:09:18.585Z,85.10
2018-03-29T16:11:46.828Z,88.00
2018-03-29T16:14:15.069Z,89.40
2018-03-29T16:16:43.315Z,86.60
2018-03-29T16:19:11.555Z,88.80
2018-03-29T16:21:39.798Z,86.60
2018-03-29T16:24:08.029Z,78.90
2018-03-29T16:26:37.042Z,79.10
2018-03-29T16:29:05.280Z,79.10
2018-03-29T16:31:34.293Z,81.10
2018-03-29T16:34:02.542Z,81.10
2018-03-29T16:36:30.790Z,84.30
2018-03-29T16:38:59.021Z,86.80
2018-03-29T16:41:27.265Z,87.80
2018-03-29T16:43:55.580Z,88.20
2018-03-29T16:46:23.821Z,90.20
2018-03-29T16:48:52.058Z,90.20
2018-03-29T16:51:20.297Z,90.50
2018-03-29T16:53:48.535Z,91.60
2018-03-29T16:56:16.778Z,92.40
2018-03-29T16:58:45.017Z,92.80
2018-03-29T17:01:14.022Z,92.50
2018-03-29T17:03:42.269Z,92.40
2018-03-29T17:06:10.500Z,92.80
2018-03-29T17:08:38.760Z,92.90
2018-03-29T17:11:06.998Z,93.00
2018-03-29T17:13:36.010Z,93.70
2018-03-29T17:16:04.250Z,93.40
2018-03-29T17:18:32.496Z,93.00
2018-03-29T17:21:00.737Z,93.80
2018-03-29T17:23:28.981Z,92.80
2018-03-29T17:25:57.218Z,93.10
2018-03-29T17:28:25.457Z,93.00
2018-03-29T17:30:54.460Z,93.00
2018-03-29T17:33:22.713Z,93.00
2018-03-29T17:35:51.713Z,97.00
2018-03-29T17:38:20.729Z,96.90
2018-03-29T17:40:48.969Z,96.80
2018-03-29T17:43:17.985Z,97.80
2018-03-29T17:45:46.229Z,97.80
2018-03-29T17:48:14.490Z,99.00
2018-03-29T17:50:42.704Z,99.20
2018-03-29T17:53:11.730Z,99.90
2018-03-29T17:55:39.969Z,99.90
2018-03-29T17:58:08.970Z,99.90
2018-03-29T18:00:37.217Z,99.90
2018-03-29T18:03:05.454Z,99.90
2018-03-29T18:05:33.698Z,99.90
2018-03-29T18:08:01.938Z,99.90
2018-03-29T18:10:30.184Z,99.90
2018-03-29T18:12:58.494Z,99.90
2018-03-29T18:15:26.672Z,99.90
2018-03-29T18:17:54.913Z,99.90
2018-03-29T18:20:23.163Z,99.90
2018-03-29T18:22:51.401Z,99.90
2018-03-29T18:25:20.412Z,99.90
2018-03-29T18:27:48.646Z,99.90
2018-03-29T18:30:16.902Z,99.90
2018-03-29T18:32:45.142Z,99.90
2018-03-29T18:35:13.380Z,99.90
2018-03-29T18:37:41.631Z,99.90
2018-03-29T18:40:09.868Z,99.90
2018-03-29T18:42:38.106Z,99.90
2018-03-29T18:45:06.342Z,99.90
2018-03-29T18:47:34.585Z,99.90
2018-03-29T18:50:03.612Z,99.90
2018-03-29T18:52:31.870Z,99.90
2018-03-29T18:55:00.114Z,99.90
2018-03-29T18:57:29.132Z,99.90
2018-03-29T18:59:57.374Z,99.90
2018-03-29T19:02:25.621Z,99.90
2018-03-29T19:04:53.858Z,99.90
2018-03-29T19:07:22.114Z,99.90
2018-03-29T19:09:51.117Z,99.90
2018-03-29T19:12:20.207Z,99.90
2018-03-29T19:14:49.214Z,99.90
2018-03-29T19:17:17.469Z,99.90
2018-03-29T19:19:46.478Z,99.90
2018-03-29T19:22:15.489Z,99.90
2018-03-29T19:24:43.736Z,99.90
2018-03-29T19:27:12.746Z,99.90
2018-03-29T19:29:40.981Z,99.90
2018-03-29T19:32:09.231Z,99.90
2018-03-29T19:34:37.473Z,99.90
2018-03-29T19:37:05.714Z,99.90
2018-03-29T19:39:33.967Z,99.90
2018-03-29T19:42:02.205Z,99.90
2018-03-29T19:44:30.449Z,99.90
2018-03-29T19:46:59.453Z,99.90
2018-03-29T19:49:28.468Z,99.90
2018-03-29T19:51:56.708Z,99.90
2018-03-29T19:54:25.721Z,99.90
2018-03-29T19:56:53.968Z,99.90
2018-03-29T19:59:22.217Z,99.90
2018-03-29T20:01:50.461Z,99.90
2018-03-29T20:04:18.708Z,99.90
2018-03-29T20:06:47.727Z,99.90
2018-03-29T20:09:15.976Z,99.90
2018-03-29T20:11:44.977Z,99.90
2018-03-29T20:14:13.992Z,99.90
2018-03-29T20:16:42.282Z,99.90
2018-03-29T20:19:10.522Z,99.90
2018-03-29T20:21:39.532Z,99.90
2018-03-29T20:24:07.762Z,99.90
2018-03-29T20:26:36.020Z,99.90
2018-03-29T20:29:04.281Z,99.90
2018-03-29T20:31:32.829Z,99.90
2018-03-29T20:34:01.072Z,99.90
2018-03-29T20:36:29.321Z,99.90
2018-03-29T20:38:57.578Z,99.90
2018-03-29T20:41:25.824Z,99.90
2018-03-29T20:43:54.077Z,99.90
2018-03-29T20:46:22.328Z,99.90
2018-03-29T20:48:50.584Z,99.90
2018-03-29T20:51:18.827Z,99.90
2018-03-29T20:53:47.078Z,99.90
2018-03-29T20:56:15.337Z,99.90
2018-03-29T20:58:43.582Z,99.90
2018-03-29T21:01:11.832Z,99.90
2018-03-29T21:03:40.077Z,99.90
2018-03-29T21:06:08.337Z,99.90
2018-03-29T21:08:36.578Z,99.90
2018-03-29T21:11:04.822Z,99.90
2018-03-29T21:13:33.855Z,99.90
2018-03-29T21:16:02.096Z,99.90
2018-03-29T21:18:31.113Z,99.90
2018-03-29T21:20:59.406Z,99.90
2018-03-29T21:23:27.701Z,99.90
2018-03-29T21:25:55.898Z,99.90
2018-03-29T21:28:24.916Z,99.90
2018-03-29T21:30:53.161Z,99.90
2018-03-29T21:33:21.450Z,99.90
2018-03-29T21:35:49.663Z,99.90
2018-03-29T21:38:17.909Z,99.90
2018-03-29T21:40:46.161Z,99.90
2018-03-29T21:43:14.409Z,99.90
2018-03-29T21:45:42.713Z,99.90
2018-03-29T21:48:10.959Z,99.90
2018-03-29T21:50:39.208Z,99.90
2018-03-29T21:53:07.510Z,99.90
2018-03-29T21:55:36.581Z,99.90
2018-03-29T21:58:04.826Z,99.90
2018-03-29T22:00:33.837Z,99.90
2018-03-29T22:03:02.081Z,99.90
2018-03-29T22:05:30.329Z,99.90
2018-03-29T22:07:58.575Z,99.90
2018-03-29T22:10:26.825Z,99.90
2018-03-29T22:12:55.832Z,99.90
2018-03-29T22:15:24.085Z,99.90
2018-03-29T22:17:53.097Z,99.90
2018-03-29T22:20:22.113Z,99.90
2018-03-29T22:22:50.356Z,99.90
2018-03-29T22:25:19.388Z,99.90
2018-03-29T22:27:47.614Z,99.90
2018-03-29T22:30:15.855Z,99.90
2018-03-29T22:32:44.109Z,99.90
2018-03-29T22:35:12.370Z,99.90
2018-03-29T22:37:40.617Z,99.90
2018-03-29T22:40:08.862Z,99.90
2018-03-29T22:42:37.884Z,99.90
2018-03-29T22:45:06.153Z,99.90
2018-03-29T22:47:34.409Z,99.90
2018-03-29T22:50:02.662Z,99.90
2018-03-29T22:52:30.913Z,99.90
2018-03-29T22:54:59.152Z,99.90
2018-03-29T22:57:27.426Z,99.90
2018-03-29T22:59:55.653Z,99.90
2018-03-29T23:02:23.908Z,99.90
2018-03-29T23:04:52.913Z,99.90
2018-03-29T23:07:21.160Z,99.90
2018-03-29T23:09:50.184Z,99.90
2018-03-29T23:12:18.430Z,99.90
2018-03-29T23:14:47.454Z,99.90
2018-03-29T23:17:15.696Z,99.90
2018-03-29T23:19:44.717Z,99.90
2018-03-29T23:22:12.953Z,99.90
2018-03-29T23:24:41.208Z,99.90
2018-03-29T23:27:09.452Z,99.90
2018-03-29T23:29:37.706Z,99.90
2018-03-29T23:32:06.710Z,99.90
2018-03-29T23:34:34.960Z,99.90
2018-03-29T23:37:03.973Z,99.90
2018-03-29T23:39:32.225Z,99.90
2018-03-29T23:42:00.468Z,99.90
2018-03-29T23:44:28.737Z,99.90
2018-03-29T23:46:56.982Z,99.90
2018-03-29T23:49:25.230Z,99.90
2018-03-29T23:51:53.476Z,99.90
2018-03-29T23:54:21.722Z,99.90
2018-03-29T23:56:49.981Z,99.90
2018-03-29T23:59:18.229Z,99.90
